Time;durP1;ratioP1;P1;durP2;ratioP2;P2;SDS_P1;SDS_P2;PMS_P1;PMS_P2;Temp;Humidity;BMP_temperature;BMP_pressure;BME280_temperature;BME280_humidity;BME280_pressure;Samples;Min_cycle;Max_cycle;Signal;HPM_P1;HPM_P2
2022/01/14 00:01:10;;;;;;;89.93;20.67;;;-1.10;99.90;;;;;;4998053;28;20037;-79
2022/01/14 00:03:36;;;;;;;70.38;21.55;;;-1.10;99.90;;;;;;4996864;28;20026;-79
2022/01/14 00:06:02;;;;;;;90.97;20.23;;;-1.00;99.90;;;;;;4998433;28;20030;-80
2022/01/14 00:08:28;;;;;;;84.88;20.88;;;-1.00;99.90;;;;;;4998278;28;20053;-79
2022/01/14 00:10:56;;;;;;;96.82;20.20;;;-1.00;99.90;;;;;;4998148;28;20023;-79
2022/01/14 00:16:06;;;;;;;86.47;19.23;;;-1.10;99.90;;;;;;4998407;28;20549;-79
2022/01/14 00:18:32;;;;;;;154.00;20.85;;;-1.20;99.90;;;;;;4996898;28;20398;-79
2022/01/14 00:21:00;;;;;;;106.60;19.33;;;-1.20;99.90;;;;;;4985159;28;20026;-79
2022/01/14 00:23:34;;;;;;;137.93;24.52;;;-1.20;99.90;;;;;;4998276;28;20430;-79
2022/01/14 00:31:45;;;;;;;154.65;23.10;;;-1.30;99.90;;;;;;4998023;28;20173;-78
2022/01/14 00:34:15;;;;;;;91.15;19.63;;;-1.30;99.90;;;;;;4997722;28;20053;-79
2022/01/14 00:36:41;;;;;;;63.78;23.10;;;-1.20;99.90;;;;;;5012981;28;20061;-78
2022/01/14 00:39:10;;;;;;;85.38;20.80;;;-1.30;99.90;;;;;;5016305;28;20065;-78
2022/01/14 00:41:36;;;;;;;73.28;18.05;;;-1.30;99.90;;;;;;5017427;28;20018;-78
2022/01/14 00:44:07;;;;;;;60.60;18.77;;;-1.30;99.90;;;;;;5016315;28;20029;-79
2022/01/14 00:46:33;;;;;;;94.57;22.13;;;-1.20;99.90;;;;;;5017595;28;20046;-78
2022/01/14 00:48:59;;;;;;;190.02;23.05;;;-1.20;99.90;;;;;;5017429;28;20039;-78
2022/01/14 00:51:25;;;;;;;187.38;22.98;;;-1.30;99.90;;;;;;5015962;28;20026;-78
2022/01/14 00:53:50;;;;;;;113.18;21.23;;;-1.30;99.90;;;;;;5017412;28;20034;-78
2022/01/14 00:56:25;;;;;;;102.97;21.00;;;-1.30;99.90;;;;;;5017351;28;20046;-78
2022/01/14 01:01:50;;;;;;;76.53;22.27;;;-1.40;99.90;;;;;;4990238;28;20036;-79
2022/01/14 01:04:19;;;;;;;92.82;22.55;;;-1.40;99.90;;;;;;4996006;28;20030;-78
2022/01/14 01:06:46;;;;;;;69.68;20.50;;;-1.40;99.90;;;;;;4997863;28;20032;-78
2022/01/14 01:09:14;;;;;;;68.63;19.38;;;-1.40;99.90;;;;;;4996048;28;20485;-79
2022/01/14 01:11:54;;;;;;;128.38;23.33;;;-1.30;99.90;;;;;;4996382;28;20031;-79
2022/01/14 01:14:32;;;;;;;58.28;22.10;;;-1.30;99.90;;;;;;5000195;28;20030;-79
2022/01/14 01:16:58;;;;;;;94.05;23.70;;;-1.30;99.90;;;;;;5001369;28;20057;-78
2022/01/14 01:19:24;;;;;;;165.63;27.27;;;-1.30;99.90;;;;;;5001381;28;20018;-78
2022/01/14 01:21:50;;;;;;;79.22;23.15;;;-1.30;99.90;;;;;;5001395;28;20128;-79
2022/01/14 01:24:16;;;;;;;167.75;24.90;;;-1.30;99.90;;;;;;5000152;28;20112;-78
2022/01/14 01:26:43;;;;;;;105.07;20.52;;;-1.30;99.90;;;;;;5001277;28;20025;-78
2022/01/14 01:31:38;;;;;;;62.28;20.90;;;-1.30;99.90;;;;;;5001386;28;20442;-78
2022/01/14 01:34:11;;;;;;;106.85;24.88;;;-1.40;99.90;;;;;;5001046;28;20113;-78
2022/01/14 01:36:38;;;;;;;101.47;22.33;;;-1.40;99.90;;;;;;5014820;28;20494;-78
2022/01/14 01:39:07;;;;;;;142.30;24.20;;;-1.40;99.90;;;;;;5021004;28;20394;-78
2022/01/14 01:41:35;;;;;;;118.28;24.45;;;-1.40;99.90;;;;;;5020747;28;20057;-78
2022/01/14 01:44:06;;;;;;;99.68;23.65;;;-1.40;99.90;;;;;;5012976;28;20060;-78
2022/01/14 01:46:33;;;;;;;87.22;25.67;;;-1.40;99.90;;;;;;5000964;28;20031;-78
2022/01/14 01:48:58;;;;;;;50.03;20.70;;;-1.50;99.90;;;;;;4999538;28;20038;-78
2022/01/14 01:51:24;;;;;;;158.18;24.55;;;-1.40;99.90;;;;;;5000790;28;20030;-78
2022/01/14 01:53:50;;;;;;;102.38;21.98;;;-1.40;99.90;;;;;;5000934;28;20108;-78
2022/01/14 01:56:17;;;;;;;77.40;22.98;;;-1.50;99.90;;;;;;5000951;28;20049;-78
2022/01/14 01:58:43;;;;;;;113.63;25.83;;;-1.50;99.90;;;;;;4999428;28;20033;-78
2022/01/14 02:01:08;;;;;;;174.68;30.45;;;-1.50;99.90;;;;;;5000566;28;20030;-78
2022/01/14 02:03:36;;;;;;;107.97;23.55;;;-1.60;99.90;;;;;;5000638;28;20547;-78
2022/01/14 02:06:03;;;;;;;64.57;24.92;;;-1.50;99.90;;;;;;4999218;28;20026;-78
2022/01/14 02:08:28;;;;;;;48.10;23.58;;;-1.50;99.90;;;;;;5000475;28;20080;-78
2022/01/14 02:10:54;;;;;;;67.57;25.38;;;-1.40;99.90;;;;;;5000318;28;20026;-78
2022/01/14 02:13:20;;;;;;;88.78;24.70;;;-1.40;99.90;;;;;;5000521;28;20086;-78
2022/01/14 02:23:44;;;;;;;89.20;24.58;;;-1.60;99.90;;;;;;5000233;28;20092;-78
2022/01/14 02:26:10;;;;;;;94.38;25.77;;;-1.50;99.90;;;;;;4998993;28;20113;-78
2022/01/14 02:28:36;;;;;;;67.47;24.08;;;-1.50;99.90;;;;;;5002512;28;20027;-78
2022/01/14 02:31:02;;;;;;;72.82;23.38;;;-1.50;99.90;;;;;;5019870;28;20470;-78
2022/01/14 02:33:28;;;;;;;86.18;23.48;;;-1.50;99.90;;;;;;5019428;28;20030;-78
2022/01/14 02:35:55;;;;;;;88.40;25.05;;;-1.50;99.90;;;;;;5016944;28;20026;-77
2022/01/14 02:38:21;;;;;;;80.50;26.05;;;-1.60;99.90;;;;;;5019811;28;20030;-78
2022/01/14 02:40:48;;;;;;;71.93;25.75;;;-1.60;99.90;;;;;;5019700;28;20508;-77
2022/01/14 02:43:17;;;;;;;66.95;23.00;;;-1.50;99.90;;;;;;5018089;28;20494;-77
2022/01/14 02:45:51;;;;;;;57.65;23.90;;;-1.60;99.90;;;;;;5019563;28;20032;-78
2022/01/14 02:48:18;;;;;;;51.83;21.85;;;-1.60;99.90;;;;;;5017827;28;20026;-78
2022/01/14 02:53:29;;;;;;;86.47;23.52;;;-1.60;99.90;;;;;;5019620;28;20029;-76
2022/01/14 02:56:00;;;;;;;65.95;22.95;;;-1.60;99.90;;;;;;5019348;28;20017;-77
2022/01/14 02:58:29;;;;;;;75.43;23.67;;;-1.60;99.90;;;;;;5017926;28;20026;-77
2022/01/14 03:00:59;;;;;;;73.47;22.42;;;-1.60;99.90;;;;;;5019300;28;20108;-76
2022/01/14 03:03:29;;;;;;;46.70;23.02;;;-1.60;99.90;;;;;;5019193;28;20049;-77
2022/01/14 03:05:55;;;;;;;200.18;26.00;;;-1.60;99.90;;;;;;5019170;28;20489;-76
2022/01/14 03:08:21;;;;;;;170.20;27.40;;;-1.70;99.90;;;;;;5017785;28;20034;-77
2022/01/14 03:10:53;;;;;;;192.32;27.38;;;-1.80;99.90;;;;;;5018981;28;20045;-76
2022/01/14 03:13:19;;;;;;;59.55;23.33;;;-1.90;99.90;;;;;;5019108;28;20018;-77
2022/01/14 03:15:45;;;;;;;79.80;23.65;;;-1.80;99.90;;;;;;5018900;28;20029;-77
2022/01/14 03:18:10;;;;;;;56.35;21.35;;;-1.70;99.90;;;;;;5017369;28;20022;-77
2022/01/14 03:20:48;;;;;;;147.68;21.63;;;-1.70;99.90;;;;;;5002085;28;20391;-77
2022/01/14 03:23:15;;;;;;;116.57;24.00;;;-1.70;99.90;;;;;;4997873;28;20029;-76
2022/01/14 03:25:48;;;;;;;68.03;21.67;;;-1.80;99.90;;;;;;4999327;28;20035;-76
2022/01/14 03:28:24;;;;;;;152.65;24.73;;;-1.80;99.90;;;;;;4999229;28;20110;-77
2022/01/14 03:30:52;;;;;;;218.23;26.67;;;-1.80;99.90;;;;;;4999059;28;20086;-76
2022/01/14 03:33:20;;;;;;;78.03;21.52;;;-1.80;99.90;;;;;;4998789;28;20018;-76
2022/01/14 03:35:46;;;;;;;50.65;20.02;;;-1.80;99.90;;;;;;5005382;28;20030;-76
2022/01/14 03:38:12;;;;;;;37.58;19.73;;;-1.80;99.90;;;;;;5018398;28;20383;-77
2022/01/14 03:40:38;;;;;;;159.00;25.92;;;-1.80;99.90;;;;;;5017277;28;20213;-77
2022/01/14 03:43:04;;;;;;;116.50;22.80;;;-1.80;99.90;;;;;;5018273;28;20041;-76
2022/01/14 03:45:30;;;;;;;131.60;26.88;;;-1.80;99.90;;;;;;5018462;28;20057;-76
2022/01/14 03:47:56;;;;;;;132.65;22.65;;;-1.80;99.90;;;;;;5016795;28;20033;-77
2022/01/14 03:50:22;;;;;;;133.40;22.25;;;-1.90;99.90;;;;;;5018280;28;20433;-77
2022/01/14 03:52:47;;;;;;;212.70;25.15;;;-2.00;99.90;;;;;;5003695;28;20026;-76
2022/01/14 03:55:14;;;;;;;59.70;21.17;;;-2.10;99.90;;;;;;4998706;28;20026;-77
2022/01/14 03:57:39;;;;;;;44.25;19.90;;;-2.00;99.90;;;;;;4998485;28;20459;-76
2022/01/14 04:00:06;;;;;;;70.85;20.75;;;-2.00;99.90;;;;;;4998582;28;20045;-77
2022/01/14 04:02:31;;;;;;;150.20;25.20;;;-2.00;99.90;;;;;;4998207;28;20029;-77
2022/01/14 04:04:57;;;;;;;46.35;21.23;;;-2.00;99.90;;;;;;4998575;28;20491;-76
2022/01/14 04:07:23;;;;;;;60.15;20.83;;;-2.00;99.90;;;;;;4998607;28;20026;-76
2022/01/14 04:09:48;;;;;;;49.50;20.33;;;-2.00;99.90;;;;;;4996978;28;20049;-76
2022/01/14 04:12:20;;;;;;;87.78;22.23;;;-2.00;99.90;;;;;;4998098;28;20487;-77
2022/01/14 04:17:12;;;;;;;243.50;29.75;;;-2.00;99.90;;;;;;4998199;28;20054;-76
2022/01/14 04:19:38;;;;;;;132.70;26.75;;;-2.10;99.90;;;;;;4998256;28;20022;-76
2022/01/14 04:22:04;;;;;;;76.10;21.38;;;-2.10;99.90;;;;;;4996698;28;20045;-76
2022/01/14 04:24:30;;;;;;;64.78;21.33;;;-2.10;99.90;;;;;;4998259;28;20080;-77
2022/01/14 04:26:56;;;;;;;44.03;21.77;;;-2.10;99.90;;;;;;4996602;28;20058;-76
2022/01/14 04:29:22;;;;;;;60.63;23.13;;;-2.10;99.90;;;;;;4996860;28;20513;-77
2022/01/14 04:31:47;;;;;;;79.00;21.95;;;-2.10;99.90;;;;;;4996305;28;20030;-76
2022/01/14 04:34:15;;;;;;;195.30;26.00;;;-2.00;99.90;;;;;;4998043;28;20027;-76
2022/01/14 04:36:42;;;;;;;58.15;21.73;;;-2.00;99.90;;;;;;5013436;28;20109;-76
2022/01/14 04:39:08;;;;;;;59.08;22.38;;;-2.00;99.90;;;;;;5017750;28;20022;-76
2022/01/14 04:41:34;;;;;;;66.15;20.65;;;-2.00;99.90;;;;;;5017302;28;20033;-76
2022/01/14 04:44:01;;;;;;;62.72;20.77;;;-2.00;99.90;;;;;;5017593;28;20029;-76
2022/01/14 04:48:53;;;;;;;35.95;20.40;;;-2.00;99.90;;;;;;5017265;28;20026;-77
2022/01/14 04:51:21;;;;;;;57.95;20.13;;;-2.00;99.90;;;;;;5017467;28;20064;-76
2022/01/14 04:53:47;;;;;;;57.53;21.92;;;-2.00;99.90;;;;;;5017516;28;20018;-77
2022/01/14 04:56:13;;;;;;;96.85;24.15;;;-2.00;99.90;;;;;;5017267;28;20030;-76
2022/01/14 04:58:39;;;;;;;78.43;21.55;;;-2.00;99.90;;;;;;5017185;28;20024;-77
2022/01/14 05:01:04;;;;;;;92.90;23.98;;;-2.00;99.90;;;;;;5015854;28;20029;-76
2022/01/14 05:03:30;;;;;;;51.35;21.83;;;-2.00;99.90;;;;;;5016832;28;20060;-76
2022/01/14 05:05:59;;;;;;;52.75;19.08;;;-2.00;99.90;;;;;;5017109;28;20080;-76
2022/01/14 05:08:34;;;;;;;86.75;22.20;;;-2.20;99.90;;;;;;5017045;28;20042;-77
2022/01/14 05:11:05;;;;;;;62.83;22.20;;;-2.40;99.90;;;;;;5015716;28;20494;-77
2022/01/14 05:13:31;;;;;;;140.05;25.65;;;-2.40;99.90;;;;;;5017190;28;20426;-76
2022/01/14 05:15:58;;;;;;;234.55;27.67;;;-2.40;99.90;;;;;;5015781;28;20044;-78
2022/01/14 05:18:24;;;;;;;150.73;25.63;;;-2.40;99.90;;;;;;5016900;28;20105;-78
2022/01/14 05:20:51;;;;;;;62.28;21.63;;;-2.50;99.90;;;;;;4997138;28;20041;-78
2022/01/14 05:23:17;;;;;;;66.68;23.77;;;-2.40;99.90;;;;;;4997825;28;20368;-79
2022/01/14 05:25:43;;;;;;;177.30;25.42;;;-2.30;99.90;;;;;;4996077;28;20023;-79
2022/01/14 05:28:08;;;;;;;52.20;21.80;;;-2.30;99.90;;;;;;4996153;28;20037;-79
2022/01/14 05:30:34;;;;;;;124.45;23.98;;;-2.40;99.90;;;;;;4992581;28;20439;-78
2022/01/14 05:33:00;;;;;;;124.57;23.27;;;-2.30;99.90;;;;;;4986532;28;20023;-78
2022/01/14 05:35:28;;;;;;;189.32;27.13;;;-2.30;99.90;;;;;;5001444;28;20018;-78
2022/01/14 05:37:54;;;;;;;241.55;29.13;;;-2.30;99.90;;;;;;5015849;28;20457;-79
2022/01/14 05:40:21;;;;;;;63.50;24.05;;;-2.40;99.90;;;;;;5015637;28;20022;-78
2022/01/14 05:42:48;;;;;;;86.05;23.00;;;-2.30;99.90;;;;;;5017004;28;20029;-78
2022/01/14 05:45:16;;;;;;;178.20;27.95;;;-2.20;99.90;;;;;;5006955;28;20018;-78
2022/01/14 05:47:42;;;;;;;135.75;26.05;;;-2.30;99.90;;;;;;4995603;28;20106;-78
2022/01/14 05:50:11;;;;;;;130.45;27.20;;;-2.40;99.90;;;;;;4997171;28;20022;-79
2022/01/14 05:52:37;;;;;;;106.60;24.95;;;-2.30;99.90;;;;;;4995781;28;20022;-79
2022/01/14 05:55:05;;;;;;;73.47;25.02;;;-2.30;99.90;;;;;;4996332;28;20062;-79
2022/01/14 05:57:34;;;;;;;98.00;24.58;;;-2.20;99.90;;;;;;4997087;28;20027;-79
2022/01/14 06:00:04;;;;;;;178.18;27.67;;;-2.20;99.90;;;;;;5000783;28;20045;-79
2022/01/14 06:02:29;;;;;;;73.95;25.60;;;-2.30;99.90;;;;;;5000481;28;20034;-78
2022/01/14 06:04:55;;;;;;;37.13;23.08;;;-2.30;99.90;;;;;;4999392;28;20030;-78
2022/01/14 06:07:21;;;;;;;48.22;22.63;;;-2.20;99.90;;;;;;4999300;28;20026;-78
2022/01/14 06:09:47;;;;;;;109.97;45.20;;;-2.10;99.90;;;;;;4999263;28;20106;-78
2022/01/14 06:12:12;;;;;;;158.52;49.35;;;-2.00;99.90;;;;;;5000539;28;20061;-78
2022/01/14 06:14:38;;;;;;;97.65;25.75;;;-2.00;99.90;;;;;;5000664;28;20101;-79
2022/01/14 06:17:05;;;;;;;44.30;24.27;;;-2.00;99.90;;;;;;4998853;28;20483;-79
2022/01/14 06:19:30;;;;;;;70.75;26.63;;;-1.90;99.90;;;;;;4999147;28;20412;-78
2022/01/14 06:21:57;;;;;;;57.47;25.15;;;-1.90;99.90;;;;;;4998835;28;20068;-78
2022/01/14 06:24:23;;;;;;;113.53;24.20;;;-2.00;99.90;;;;;;4999601;28;20026;-78
2022/01/14 06:26:48;;;;;;;44.30;22.73;;;-2.00;99.90;;;;;;4998850;28;20501;-78
2022/01/14 06:29:14;;;;;;;54.58;23.50;;;-2.00;99.90;;;;;;4991503;28;20026;-78
2022/01/14 06:31:40;;;;;;;70.85;24.48;;;-2.10;99.90;;;;;;4999680;28;20508;-78
2022/01/14 06:34:06;;;;;;;76.50;24.80;;;-2.00;99.90;;;;;;5000192;28;20812;-78
2022/01/14 06:36:31;;;;;;;49.30;23.45;;;-2.00;99.90;;;;;;5012892;28;20033;-78
2022/01/14 06:38:57;;;;;;;83.45;25.52;;;-2.10;99.90;;;;;;5005168;28;20101;-78
2022/01/14 06:41:23;;;;;;;49.03;23.40;;;-2.10;99.90;;;;;;4999944;28;20058;-78
2022/01/14 06:43:48;;;;;;;43.40;23.25;;;-2.20;99.90;;;;;;4998763;28;20030;-78
2022/01/14 06:46:14;;;;;;;44.55;22.88;;;-2.10;99.90;;;;;;4997935;28;20053;-78
2022/01/14 06:48:40;;;;;;;74.22;23.52;;;-2.10;99.90;;;;;;4997869;28;20023;-78
2022/01/14 06:51:12;;;;;;;55.65;23.00;;;-2.10;99.90;;;;;;4997494;28;20576;-78
2022/01/14 06:53:38;;;;;;;181.57;26.60;;;-2.10;99.90;;;;;;4996351;28;20101;-77
2022/01/14 06:56:04;;;;;;;63.00;21.33;;;-2.30;99.90;;;;;;4999165;28;20057;-78
2022/01/14 06:58:29;;;;;;;57.95;23.63;;;-2.30;99.90;;;;;;4999094;28;20021;-78
2022/01/14 07:00:55;;;;;;;75.07;28.90;;;-2.30;99.90;;;;;;4998309;28;20031;-78
2022/01/14 07:03:21;;;;;;;162.05;52.88;;;-2.30;99.90;;;;;;4998883;28;20052;-78
2022/01/14 07:05:47;;;;;;;197.88;52.00;;;-2.30;99.90;;;;;;4998919;28;20077;-78
2022/01/14 07:08:12;;;;;;;130.52;40.88;;;-2.20;99.90;;;;;;4998726;28;20023;-78
2022/01/14 07:10:39;;;;;;;72.45;25.90;;;-2.20;99.90;;;;;;4997786;28;20106;-78
2022/01/14 07:13:05;;;;;;;47.67;24.35;;;-2.30;99.90;;;;;;4996444;28;20080;-78
2022/01/14 07:15:31;;;;;;;81.95;24.63;;;-2.30;99.90;;;;;;4995857;28;20023;-78
2022/01/14 07:17:57;;;;;;;53.25;26.38;;;-2.30;99.90;;;;;;4997535;28;20495;-78
2022/01/14 07:20:23;;;;;;;97.10;51.53;;;-2.30;99.90;;;;;;4996095;28;20034;-78
2022/01/14 07:22:49;;;;;;;42.35;24.08;;;-2.30;99.90;;;;;;4999375;28;20038;-79
2022/01/14 07:25:15;;;;;;;57.35;24.42;;;-2.30;99.90;;;;;;4999130;28;20034;-79
2022/01/14 07:27:41;;;;;;;98.95;30.98;;;-2.30;99.90;;;;;;4999155;28;20050;-78
2022/01/14 07:30:08;;;;;;;89.60;28.75;;;-2.30;99.90;;;;;;4998802;28;20057;-79
2022/01/14 07:32:34;;;;;;;78.15;27.25;;;-2.30;99.90;;;;;;4998399;28;20026;-79
2022/01/14 07:35:02;;;;;;;46.17;26.25;;;-2.30;99.90;;;;;;4995351;28;20015;-78
2022/01/14 07:37:28;;;;;;;103.72;26.33;;;-2.20;99.90;;;;;;5017449;28;20022;-79
2022/01/14 07:39:53;;;;;;;61.35;25.10;;;-2.30;99.90;;;;;;5018352;28;20086;-78
2022/01/14 07:42:19;;;;;;;51.13;26.00;;;-2.30;99.90;;;;;;5010642;28;20019;-78
2022/01/14 07:44:45;;;;;;;49.58;26.63;;;-2.30;99.90;;;;;;4998945;28;20069;-78
2022/01/14 07:47:11;;;;;;;52.35;30.05;;;-2.40;99.90;;;;;;4998559;28;20555;-78
2022/01/14 07:49:37;;;;;;;52.78;26.58;;;-2.50;99.90;;;;;;4998674;28;20034;-77
2022/01/14 07:52:03;;;;;;;54.45;25.27;;;-2.50;99.90;;;;;;4998906;28;20027;-77
2022/01/14 07:54:29;;;;;;;48.83;27.13;;;-2.50;99.90;;;;;;4998629;28;20030;-77
2022/01/14 07:56:58;;;;;;;56.63;28.90;;;-2.60;99.90;;;;;;4998619;28;20030;-77
2022/01/14 07:59:26;;;;;;;38.13;25.63;;;-2.50;99.90;;;;;;4998532;28;20018;-77
2022/01/14 08:01:57;;;;;;;53.03;29.63;;;-2.50;99.90;;;;;;4998338;28;20038;-77
2022/01/14 08:04:24;;;;;;;52.63;32.50;;;-2.60;99.90;;;;;;4997393;28;20173;-77
2022/01/14 08:06:52;;;;;;;55.10;31.85;;;-2.60;99.90;;;;;;4998709;28;20030;-77
2022/01/14 08:09:19;;;;;;;48.22;27.08;;;-2.50;99.90;;;;;;4998170;28;20066;-77
2022/01/14 08:11:45;;;;;;;51.97;28.55;;;-2.50;99.90;;;;;;4998252;28;20021;-77
2022/01/14 08:14:12;;;;;;;46.85;27.55;;;-2.50;99.90;;;;;;4996902;28;20561;-77
2022/01/14 08:16:38;;;;;;;49.38;29.35;;;-2.50;99.90;;;;;;4982522;28;20030;-77
2022/01/14 08:19:04;;;;;;;45.20;29.20;;;-2.50;99.90;;;;;;4988583;28;20026;-78
2022/01/14 08:21:30;;;;;;;44.13;27.15;;;-2.40;99.90;;;;;;4997894;28;20030;-77
2022/01/14 08:23:56;;;;;;;47.30;28.98;;;-2.40;99.90;;;;;;4998132;28;20053;-77
2022/01/14 08:26:21;;;;;;;40.30;27.27;;;-2.40;99.90;;;;;;4997911;28;20029;-78
2022/01/14 08:28:48;;;;;;;41.83;27.95;;;-2.30;99.90;;;;;;4997946;28;20033;-77
2022/01/14 08:31:16;;;;;;;53.65;28.98;;;-2.20;99.90;;;;;;4997435;28;20065;-77
2022/01/14 08:33:46;;;;;;;41.75;25.95;;;-2.20;99.90;;;;;;4997537;28;20054;-77
2022/01/14 08:36:12;;;;;;;44.38;28.80;;;-2.10;99.90;;;;;;5005815;28;20506;-76
2022/01/14 08:38:38;;;;;;;47.80;29.55;;;-2.10;99.90;;;;;;4997474;28;20034;-77
2022/01/14 08:41:05;;;;;;;53.45;29.92;;;-2.00;99.90;;;;;;4997468;28;20105;-78
2022/01/14 08:43:31;;;;;;;52.70;31.42;;;-2.00;99.90;;;;;;4997254;28;20058;-78
2022/01/14 08:45:58;;;;;;;65.75;36.53;;;-1.90;99.90;;;;;;4994532;28;20030;-77
2022/01/14 08:48:25;;;;;;;54.10;33.85;;;-1.90;99.90;;;;;;4997385;28;20091;-78
2022/01/14 08:50:50;;;;;;;58.03;36.58;;;-1.80;99.90;;;;;;4997805;28;20022;-77
2022/01/14 08:53:16;;;;;;;51.28;33.38;;;-1.80;99.90;;;;;;4996340;28;20026;-78
2022/01/14 08:55:42;;;;;;;51.80;30.88;;;-1.70;99.90;;;;;;4997707;28;20030;-78
2022/01/14 08:58:09;;;;;;;48.38;30.65;;;-1.70;99.90;;;;;;4996915;28;20032;-78
2022/01/14 09:00:35;;;;;;;47.65;31.67;;;-1.70;99.90;;;;;;4997653;28;20041;-78
2022/01/14 09:03:03;;;;;;;46.65;29.38;;;-1.60;99.90;;;;;;4995850;28;20438;-78
2022/01/14 09:05:29;;;;;;;46.88;29.55;;;-1.60;99.90;;;;;;4997871;28;20026;-78
2022/01/14 09:07:55;;;;;;;48.40;28.73;;;-1.60;99.90;;;;;;4997517;28;20026;-78
2022/01/14 09:10:21;;;;;;;44.03;29.05;;;-1.50;99.90;;;;;;4997370;28;20497;-78
2022/01/14 09:12:48;;;;;;;48.28;30.92;;;-1.50;99.90;;;;;;4997438;28;20027;-78
2022/01/14 09:15:14;;;;;;;50.35;29.25;;;-1.40;99.90;;;;;;4997689;28;20033;-78
2022/01/14 09:17:40;;;;;;;42.95;28.90;;;-1.40;99.90;;;;;;4997410;28;20023;-78
2022/01/14 09:20:08;;;;;;;48.47;32.03;;;-1.40;99.90;;;;;;4997675;28;20050;-78
2022/01/14 09:22:35;;;;;;;42.35;28.27;;;-1.30;99.90;;;;;;4997480;28;20065;-78
2022/01/14 09:25:03;;;;;;;47.50;29.42;;;-1.30;99.90;;;;;;4997551;28;20030;-78
2022/01/14 09:27:29;;;;;;;53.38;33.92;;;-1.30;99.90;;;;;;4997617;28;20422;-78
2022/01/14 09:29:56;;;;;;;45.13;29.75;;;-1.20;99.90;;;;;;4997439;28;20113;-78
2022/01/14 09:32:22;;;;;;;47.42;30.38;;;-1.10;99.90;;;;;;4995879;28;20033;-78
2022/01/14 09:34:48;;;;;;;49.78;29.05;;;-1.10;99.90;;;;;;5000950;28;20434;-78
2022/01/14 09:37:14;;;;;;;51.38;31.08;;;-1.00;99.90;;;;;;5021049;28;20022;-78
2022/01/14 09:39:43;;;;;;;51.85;32.05;;;-1.00;99.90;;;;;;5020729;28;20018;-78
2022/01/14 09:42:13;;;;;;;44.83;28.00;;;-0.90;99.90;;;;;;5016733;28;20018;-78
2022/01/14 09:44:41;;;;;;;44.67;30.30;;;-0.80;99.90;;;;;;5032511;28;20057;-77
2022/01/14 09:47:07;;;;;;;40.08;28.17;;;-0.80;99.90;;;;;;5000883;28;20026;-77
2022/01/14 09:49:33;;;;;;;41.00;28.02;;;-0.80;99.90;;;;;;4999385;28;20034;-77
2022/01/14 09:51:59;;;;;;;43.38;27.33;;;-0.80;99.90;;;;;;5000986;28;20042;-78
2022/01/14 09:54:24;;;;;;;45.67;29.75;;;-0.70;99.90;;;;;;4999531;28;20466;-77
2022/01/14 09:56:50;;;;;;;39.13;26.10;;;-0.60;99.90;;;;;;5000865;28;20053;-78
2022/01/14 09:59:18;;;;;;;39.38;27.52;;;-0.60;99.90;;;;;;5001024;28;20014;-78
2022/01/14 10:01:46;;;;;;;48.53;28.45;;;-0.50;99.90;;;;;;5000533;28;20505;-77
2022/01/14 10:04:20;;;;;;;38.63;27.35;;;-0.40;99.90;;;;;;5000480;28;20038;-78
2022/01/14 10:06:54;;;;;;;39.60;27.70;;;-0.30;99.90;;;;;;5000717;28;20022;-78
2022/01/14 10:09:43;;;;;;;37.72;26.92;;;-0.20;99.90;;;;;;5000440;28;20426;-78
2022/01/14 10:12:16;;;;;;;39.25;25.10;;;-0.10;99.90;;;;;;4999357;28;20398;-77
2022/01/14 10:15:06;;;;;;;40.63;26.55;;;0.00;99.90;;;;;;5018776;28;20022;-77
2022/01/14 10:17:40;;;;;;;36.53;27.33;;;0.10;99.90;;;;;;5014291;28;20037;-77
2022/01/14 10:20:09;;;;;;;41.45;26.65;;;0.10;99.90;;;;;;5000382;28;20097;-77
2022/01/14 10:22:39;;;;;;;37.22;25.25;;;0.20;99.90;;;;;;5000048;28;20018;-78
2022/01/14 10:25:10;;;;;;;37.38;26.63;;;0.30;99.90;;;;;;4998966;28;20034;-77
2022/01/14 10:27:38;;;;;;;;;;;0.30;99.90;;;;;;4999708;28;20041;-77
2022/01/14 10:30:16;;;;;;;39.60;27.20;;;0.40;99.90;;;;;;4998781;28;20007;-77
2022/01/14 10:32:55;;;;;;;36.80;24.45;;;0.50;99.90;;;;;;5000048;28;20018;-77
2022/01/14 10:35:23;;;;;;;38.00;26.48;;;0.60;99.90;;;;;;5002875;28;20034;-77
2022/01/14 10:37:49;;;;;;;43.28;27.20;;;0.60;99.90;;;;;;5019676;28;20026;-77
2022/01/14 10:40:21;;;;;;;41.75;27.67;;;0.70;99.90;;;;;;5019473;28;20072;-77
2022/01/14 10:42:59;;;;;;;41.90;26.08;;;0.70;99.90;;;;;;5018298;28;20379;-77
2022/01/14 10:45:27;;;;;;;36.28;28.00;;;0.80;99.90;;;;;;5019356;28;20022;-77
2022/01/14 10:48:05;;;;;;;41.90;28.60;;;0.80;99.90;;;;;;5001692;28;20018;-77
2022/01/14 10:50:36;;;;;;;36.78;26.60;;;0.80;99.90;;;;;;4998414;28;20034;-78
2022/01/14 10:53:08;;;;;;;43.67;29.40;;;0.90;99.90;;;;;;4985443;28;20022;-78
2022/01/14 10:55:38;;;;;;;42.03;28.23;;;1.00;99.90;;;;;;4999425;28;20041;-78
2022/01/14 10:58:14;;;;;;;41.88;27.55;;;1.10;99.90;;;;;;4998256;28;20029;-79
2022/01/14 11:00:47;;;;;;;35.25;25.33;;;1.10;99.90;;;;;;4999890;28;20026;-79
2022/01/14 11:03:13;;;;;;;35.67;24.27;;;1.20;99.90;;;;;;4997138;28;20487;-79
2022/01/14 11:05:39;;;;;;;37.63;25.05;;;1.20;99.90;;;;;;4999688;28;20045;-79
2022/01/14 11:08:05;;;;;;;265.25;159.95;;;1.30;99.90;;;;;;4999431;28;20026;-79
2022/01/14 11:10:37;;;;;;;38.72;25.67;;;1.50;99.90;;;;;;4997952;28;20042;-79
2022/01/14 11:13:07;;;;;;;33.30;23.83;;;1.50;99.90;;;;;;4999535;28;20482;-79
2022/01/14 11:15:34;;;;;;;34.78;24.75;;;1.50;99.90;;;;;;4998105;28;20019;-79
2022/01/14 11:18:04;;;;;;;35.33;24.67;;;1.60;99.90;;;;;;4999119;28;20015;-78
2022/01/14 11:20:34;;;;;;;39.30;24.55;;;1.60;99.90;;;;;;4999375;28;20081;-76
2022/01/14 11:23:16;;;;;;;34.20;23.80;;;1.70;99.90;;;;;;4992903;28;20452;-77
2022/01/14 11:25:52;;;;;;;34.45;24.58;;;1.80;99.90;;;;;;5017803;28;20049;-78
2022/01/14 11:28:33;;;;;;;39.13;26.17;;;1.80;99.90;;;;;;5018709;28;20117;-76
2022/01/14 11:30:59;;;;;;;36.35;24.15;;;1.90;99.90;;;;;;5018681;28;20022;-77
2022/01/14 11:33:42;;;;;;;33.88;24.55;;;2.00;99.90;;;;;;5017093;28;20421;-77
2022/01/14 11:36:09;;;;;;;32.75;22.23;;;2.10;99.90;;;;;;5014224;28;20026;-76
2022/01/14 11:38:36;;;;;;;37.15;25.15;;;2.10;99.90;;;;;;5005036;28;20122;-77
2022/01/14 11:41:02;;;;;;;37.60;25.48;;;2.20;99.90;;;;;;4998872;28;20030;-77
2022/01/14 11:43:45;;;;;;;36.33;24.35;;;2.20;99.90;;;;;;4997596;28;20372;-77
2022/01/14 11:46:16;;;;;;;36.17;25.30;;;2.30;99.90;;;;;;4998832;28;20098;-77
2022/01/14 11:48:52;;;;;;;37.53;24.83;;;2.40;99.90;;;;;;4998748;28;20050;-77
2022/01/14 11:51:18;;;;;;;35.33;24.70;;;2.40;99.90;;;;;;4997299;28;20402;-76
2022/01/14 11:53:50;;;;;;;33.72;25.25;;;2.50;99.90;;;;;;4998842;28;20394;-76
2022/01/14 11:56:35;;;;;;;39.60;25.27;;;2.50;99.90;;;;;;4996733;28;20034;-76
2022/01/14 11:59:22;;;;;;;31.85;25.27;;;2.60;99.90;;;;;;4996943;28;20030;-76
2022/01/14 12:01:55;;;;;;;42.92;27.15;;;2.70;99.90;;;;;;4995017;28;20407;-76
2022/01/14 12:04:22;;;;;;;36.80;26.83;;;2.70;99.90;;;;;;4994068;28;20119;-77
2022/01/14 12:06:51;;;;;;;31.83;22.23;;;2.80;99.90;;;;;;4994192;28;20518;-76
2022/01/14 12:09:18;;;;;;;34.10;24.05;;;2.90;99.90;;;;;;4997467;28;20050;-76
2022/01/14 12:11:44;;;;;;;32.42;22.85;;;2.90;99.90;;;;;;4997189;28;20139;-76
2022/01/14 12:14:11;;;;;;;34.40;24.67;;;3.10;99.90;;;;;;4993862;28;20057;-75
2022/01/14 12:16:50;;;;;;;31.58;24.02;;;3.10;99.90;;;;;;4997548;28;20138;-76
2022/01/14 12:19:22;;;;;;;34.83;25.20;;;3.20;99.90;;;;;;4996893;28;20026;-76
2022/01/14 12:21:49;;;;;;;30.45;22.40;;;3.20;99.90;;;;;;5011642;28;20057;-76
2022/01/14 12:24:17;;;;;;;28.30;22.25;;;3.20;99.90;;;;;;5017866;28;20029;-75
2022/01/14 12:27:03;;;;;;;38.08;22.27;;;3.30;99.90;;;;;;5017589;28;20021;-76
2022/01/14 12:29:37;;;;;;;34.70;22.88;;;3.40;99.90;;;;;;5005757;28;20030;-76
2022/01/14 12:32:03;;;;;;;28.35;21.23;;;3.50;99.90;;;;;;4996782;28;20034;-76
2022/01/14 12:34:57;;;;;;;27.58;22.05;;;3.50;99.90;;;;;;4993654;28;20080;-77
2022/01/14 12:37:43;;;;;;;30.13;21.08;;;3.50;99.90;;;;;;4995771;28;20024;-77
2022/01/14 12:40:14;;;;;;;29.88;20.90;;;3.60;99.90;;;;;;5014996;28;20014;-77
2022/01/14 12:42:46;;;;;;;30.30;21.75;;;3.60;99.90;;;;;;5002923;28;20057;-77
2022/01/14 12:45:29;;;;;;;28.00;21.20;;;3.70;99.90;;;;;;4997091;28;20036;-76
2022/01/14 12:48:40;;;;;;;28.42;19.50;;;3.80;99.90;;;;;;4995950;28;20030;-77
2022/01/14 12:51:19;;;;;;;26.02;18.85;;;3.80;99.90;;;;;;4995049;28;20451;-78
2022/01/14 12:54:07;;;;;;;24.73;17.98;;;4.00;99.90;;;;;;4997715;28;20030;-77
2022/01/14 12:56:34;;;;;;;28.55;18.35;;;4.00;99.90;;;;;;4996181;28;20039;-77
2022/01/14 12:59:09;;;;;;;27.30;19.08;;;4.00;99.90;;;;;;4997745;28;20072;-77
2022/01/14 13:01:47;;;;;;;28.25;19.95;;;4.10;99.90;;;;;;4996419;28;20483;-78
2022/01/14 13:04:14;;;;;;;30.42;19.88;;;4.00;99.90;;;;;;4996203;28;20042;-77